Rolling Meadows, Illinois
Current Conditions -  °F | °C
As of 4:20 AM on Saturday 25 Oct 2014 (Local Time) from KPWK Reporting Station
Overcast Overcast  
Wind Chill: 15°   Ceiling: 900
Heat Index: 15°   Visibility: 7mi
Dew Point: 12°   Wind: 8mph
Humidity: 83%   Direction: 290°WNW
Pressure: 29.91"   Gusts: NA
Location:  42.08°N, 88.03°W
Report Text: KPWK 250920Z AUTO 29007KT 7SM OVC009 15/12 A2991 RMK AO2 T01500122
Loading
Personal Weather Stations






























Interactive Weather Map
Tropical Storm Tracking
New forecast layout! Learn more

10-Day Weather Forecast

Advertisements
Track Severe Weather on mobile